Flight Track Log - Related Links

Times and Time Zones

All times are in EDT time to prevent confusion due to time zone crossing. See the RPA4928 flight status page for this flight to view local times or setup timezone preferences in your user account.

Time Position Orientation Groundspeed Altitude Reporting Facility
EDT Latitude Longitude Course Direction KTS MPH feet Rate Location/Type
Sat 08:53:17 PM 40.6478 -74.1819 194° South 190 219 1,900  Level New York Center
Sat 08:54:18 PM 40.5944 -74.2256 212° Southwest 224 258 3,100 1,686 Climbing New York Center
Sat 08:55:00 PM 40.4661 -74.2406 157° South  Level FlightAware Approximate
Sat 08:55:18 PM 40.5472 -74.2725 217° Southwest 232 267 5,300  Level New York Center
Sat 08:56:00 PM 40.3914 -74.1998 157° South  Level FlightAware Approximate
Sat 08:56:25 PM 40.4667 -74.2500 168° South 267 307 6,000  Level New York TRACON
Sat 08:57:00 PM 40.3167 -74.1591 157° South  Level FlightAware Approximate
Sat 08:57:25 PM 40.4000 -74.2167 159° South 257 296 6,000  Level New York TRACON
Sat 08:58:00 PM 40.2391 -74.1703 194° South  Level FlightAware Approximate
Sat 08:58:25 PM 40.3833 -74.1167 102° East 275 316 6,100  Level New York TRACON
Sat 08:59:17 PM 40.3414 -74.0386 125° Southeast 281 323 7,000 1,500 Climbing New York Center
Sat 09:00:17 PM 40.2886 -73.9872 143° Southeast 294 338 8,900 984 Climbing New York Center
Sat 09:01:19 PM 40.2206 -73.9650 166° South 257 296 9,000 50 Climbing New York Center
Sat 09:02:17 PM 40.1750 -74.0308 228° Southwest 227 261 9,000 347 Level New York Center
Sat 09:03:20 PM 40.1272 -74.0908 224° Southwest 239 275 9,700 1,250 Climbing New York Center
Sat 09:04:17 PM 40.0772 -74.1644 228° Southwest 245 282 11,500 1,707 Climbing New York Center
Sat 09:05:16 PM 40.0275 -74.2244 223° Southwest 245 282 13,000 1,500 Climbing New York Center
Sat 09:06:17 PM 39.9758 -74.2842 222° Southwest 245 282 14,500 1,339 Climbing New York Center
Sat 09:07:17 PM 39.9264 -74.3303 216° Southwest 245 282 15,700 1,188 Climbing New York Center
Sat 09:07:58 PM 39.8803 -74.3694 213° Southwest 248 285 16,500 1,129 Climbing Washington Center
Sat 09:08:58 PM 39.8244 -74.4244 217° Southwest 248 285 17,600 1,180 Climbing Washington Center
Sat 09:10:00 PM 39.7750 -74.4844 223° Southwest 248 285 18,900 1,082 Climbing Washington Center
Sat 09:11:00 PM 39.7278 -74.5528 228° Southwest 248 285 19,800 915 Climbing Washington Center
Sat 09:11:58 PM 39.6783 -74.6156 224° Southwest 248 285 20,700 800 Climbing Washington Center
Sat 09:13:00 PM 39.6392 -74.6700 227° Southwest 248 285 21,400 885 Climbing Washington Center
Sat 09:14:00 PM 39.5856 -74.7381 224° Southwest 248 285 22,500 966 Climbing Washington Center
Sat 09:14:58 PM 39.5381 -74.8003 225° Southwest 248 285 23,300 763 Climbing Washington Center
Sat 09:15:58 PM 39.4925 -74.8600 225° Southwest 248 285 24,000 347 Climbing Washington Center
Sat 09:16:59 PM 39.4450 -74.9250 227° Southwest 248 285 24,000  Level Washington Center
Sat 09:17:59 PM 39.3953 -74.9900 225° Southwest 253 291 24,000  Level Washington Center
Sat 09:18:58 PM 39.3414 -75.0575 224° Southwest 253 291 24,000  Level Washington Center
Sat 09:20:00 PM 39.2875 -75.1331 227° Southwest 266 306 24,000  Level Washington Center
Sat 09:20:58 PM 39.2314 -75.2003 223° Southwest 278 320 24,000  Level Washington Center
Sat 09:21:59 PM 39.1775 -75.2703 225° Southwest 278 320 24,000  Level Washington Center
Sat 09:23:00 PM 39.1236 -75.3400 225° Southwest 278 320 24,000  Level Washington Center
Sat 09:23:58 PM 39.0675 -75.4097 224° Southwest 278 320 24,000  Level Washington Center
Sat 09:24:58 PM 39.0133 -75.4819 226° Southwest 278 320 24,000  Level Washington Center
Sat 09:25:59 PM 38.9569 -75.5542 225° Southwest 278 320 24,000  Level Washington Center
Sat 09:26:59 PM 38.9028 -75.6264 226° Southwest 278 320 24,000  Level Washington Center
Sat 09:27:58 PM 38.8528 -75.7036 230° Southwest 278 320 24,000  Level Washington Center
Sat 09:28:59 PM 38.7881 -75.7622 215° Southwest 283 326 24,000  Level Washington Center
Sat 09:30:00 PM 38.7233 -75.8231 216° Southwest 288 331 24,000  Level Washington Center
Sat 09:31:00 PM 38.6608 -75.8867 218° Southwest 293 337 24,000  Level Washington Center
Sat 09:32:00 PM 38.5939 -75.9450 214° Southwest 293 337 24,000  Level Washington Center
Sat 09:32:58 PM 38.5269 -76.0003 213° Southwest 293 337 24,000 -50 Level Washington Center
Sat 09:33:59 PM 38.4619 -76.0636 217° Southwest 293 337 23,900 -492 Descending Washington Center
Sat 09:35:00 PM 38.3950 -76.1269 217° Southwest 299 344 23,000 -958 Descending Washington Center
Sat 09:35:58 PM 38.3217 -76.2006 218° Southwest 304 350 22,000 -504 Descending Washington Center
Sat 09:36:59 PM 38.2631 -76.2475 212° Southwest 294 338 22,000  Level Washington Center
Sat 09:37:59 PM 38.2003 -76.3131 219° Southwest 294 338 22,000  Level Washington Center
Sat 09:38:59 PM 38.1353 -76.3731 216° Southwest 294 338 22,000  Level Washington Center
Sat 09:39:58 PM 38.0703 -76.4331 216° Southwest 294 338 22,000  Level Washington Center
Sat 09:40:58 PM 38.0050 -76.4956 217° Southwest 294 338 22,000  Level Washington Center
Sat 09:41:59 PM 37.9400 -76.5556 216° Southwest 294 338 22,000  Level Washington Center
Sat 09:42:59 PM 37.8769 -76.6153 217° Southwest 294 338 22,000  Level Washington Center
Sat 09:44:00 PM 37.8097 -76.6747 215° Southwest 294 338 22,000  Level Washington Center
Sat 09:44:59 PM 37.7464 -76.7342 217° Southwest 294 338 22,000  Level Washington Center
Sat 09:45:58 PM 37.6728 -76.8014 216° Southwest 294 338 22,000  Level Washington Center
Sat 09:47:00 PM 37.6075 -76.8631 217° Southwest 294 338 22,000  Level Washington Center
Sat 09:47:58 PM 37.5403 -76.9222 215° Southwest 294 338 22,000  Level Washington Center
Sat 09:49:00 PM 37.4811 -76.9789 217° Southwest 294 338 22,000  Level Washington Center
Sat 09:50:00 PM 37.4072 -77.0456 216° Southwest 301 346 22,000 -102 Level Washington Center
Sat 09:50:58 PM 37.3461 -77.1017 216° Southwest 296 341 21,800 -559 Descending Washington Center
Sat 09:51:58 PM 37.2744 -77.1553 211° Southwest 296 341 20,900 -885 Descending Washington Center
Sat 09:53:00 PM 37.1989 -77.2058 208° Southwest 301 346 20,000 -450 Descending Washington Center
Sat 09:53:58 PM 37.1314 -77.2592 212° Southwest 301 346 20,000  Level Washington Center
Sat 09:55:00 PM 37.0678 -77.3203 217° Southwest 295 339 20,000  Level Washington Center
Sat 09:55:58 PM 37.0044 -77.3811 217° Southwest 295 339 20,000  Level Washington Center
Sat 09:56:59 PM 36.9408 -77.4422 218° Southwest 295 339 20,000  Level Washington Center
Sat 09:58:00 PM 36.8772 -77.5056 219° Southwest 295 339 20,000  Level Washington Center
Sat 09:59:00 PM 36.8075 -77.5686 216° Southwest 295 339 20,000  Level Washington Center
Sat 09:59:58 PM 36.7439 -77.6292 217° Southwest 295 339 20,000  Level Washington Center
Sat 10:00:59 PM 36.6758 -77.6922 217° Southwest 295 339 20,000  Level Washington Center
Sat 10:02:00 PM 36.6122 -77.7553 219° Southwest 295 339 20,000  Level Washington Center
Sat 10:02:58 PM 36.5444 -77.8181 217° Southwest 295 339 20,000 -559 Level Washington Center
Sat 10:03:58 PM 36.4764 -77.8831 218° Southwest 300 345 18,900 -1,721 Descending Washington Center
Sat 10:05:00 PM 36.3978 -77.9583 218° Southwest 318 366 16,500 -2,308 Descending Washington Center
Sat 10:05:16 PM 36.3764 -77.9756 213° Southwest 331 381 15,900 -2,118 Descending Washington Center
Sat 10:05:34 PM 36.3572 -77.9931 216° Southwest 325 374 15,300 -1,857 Descending Washington Center
Sat 10:05:58 PM 36.3297 -78.0206 219° Southwest 323 372 14,600 -1,900 Descending Washington Center
Sat 10:06:34 PM 36.2872 -78.0581 215° Southwest 302 348 13,400 -2,000 Descending Washington Center
Sat 10:06:58 PM 36.2614 -78.0908 226° Southwest 323 372 12,600 -2,034 Descending Washington Center
Sat 10:07:33 PM 36.2375 -78.1414 240° Southwest 304 350 11,400 -2,032 Descending Washington Center
Sat 10:08:00 PM 36.2200 -78.1794 240° Southwest 312 359 10,500 -1,377 Descending Washington Center
Sat 10:08:34 PM 36.1961 -78.2250 237° Southwest 280 322 10,000 -700 Descending Washington Center
Sat 10:09:00 PM 36.1869 -78.2506 246° West 278 320 9,800 -476 Descending Washington Center
Sat 10:09:37 PM 36.1567 -78.3008 233° Southwest 233 268 9,500 -414 Descending Washington Center
Sat 10:09:58 PM 36.1458 -78.3261 242° Southwest 253 291 9,400 -281 Descending Washington Center
Sat 10:10:41 PM 36.1175 -78.3792 237° Southwest 247 284 9,200 -393 Descending Washington Center
Sat 10:10:59 PM 36.1128 -78.3944 249° West 253 291 9,000 -1,377 Descending Washington Center
Sat 10:11:42 PM 36.0822 -78.4525 237° Southwest 251 289 7,800 -1,475 Descending Washington Center
Sat 10:12:00 PM 36.0756 -78.4728 248° West 248 285 7,500 -1,475 Descending Washington Center
Sat 10:12:43 PM 36.0494 -78.5181 235° Southwest 225 259 6,300 -1,552 Descending Washington Center
Sat 10:12:58 PM 36.0428 -78.5333 242° Southwest 241 277 6,000 -1,500 Descending Washington Center
Sat 10:13:43 PM 36.0144 -78.5861 236° Southwest 234 269 4,800 -1,600 Descending Washington Center
Sat 10:13:58 PM 36.0078 -78.6014 242° Southwest 241 277 4,400 -1,667 Descending Washington Center
Sat 10:14:37 PM 35.9833 -78.6517 239° Southwest 240 276 3,300 -1,452 Descending Washington Center
Sat 10:15:00 PM 35.9747 -78.6694 239° Southwest 241 277 2,900 -1,043 Descending Washington Center

Login

Don't have an account? Register now (free) for customized features, flight alerts, and more!